Time;durP1;ratioP1;P1;durP2;ratioP2;P2;SDS_P1;SDS_P2;PMS_P1;PMS_P2;Temp;Humidity;BMP_temperature;BMP_pressure;BME280_temperature;BME280_humidity;BME280_pressure;Samples;Min_cycle;Max_cycle;Signal;HPM_P1;HPM_P2
2022/05/25 00:01:29;;;;;;;2.90;2.53;;;11.40;99.90;;;;;;5113802;28;20884;-92
2022/05/25 00:03:56;;;;;;;1.87;1.77;;;11.40;99.90;;;;;;5113663;28;20468;-91
2022/05/25 00:06:24;;;;;;;2.17;1.97;;;11.50;99.90;;;;;;5114029;28;20466;-92
2022/05/25 00:08:50;;;;;;;2.43;2.23;;;11.40;99.90;;;;;;5113865;28;20482;-92
2022/05/25 00:11:17;;;;;;;3.40;2.20;;;11.40;99.90;;;;;;5114456;28;20452;-92
2022/05/25 00:13:45;;;;;;;2.70;2.17;;;11.40;99.90;;;;;;5113760;28;20461;-92
2022/05/25 00:16:12;;;;;;;5.30;2.20;;;11.40;99.90;;;;;;5113710;28;20445;-92
2022/05/25 00:19:58;;;;;;;2.90;2.30;;;11.40;99.90;;;;;;5113914;28;20477;-92
2022/05/25 00:21:26;;;;;;;2.03;1.83;;;11.40;99.90;;;;;;5113494;28;20489;-91
2022/05/25 00:23:53;;;;;;;3.03;1.90;;;11.40;99.90;;;;;;5113898;28;20642;-92
2022/05/25 00:26:20;;;;;;;11.90;2.23;;;11.40;99.90;;;;;;5113760;28;20204;-92
2022/05/25 00:28:48;;;;;;;2.23;2.03;;;11.40;99.90;;;;;;5113129;28;20465;-92
2022/05/25 00:31:15;;;;;;;2.40;2.07;;;11.30;99.90;;;;;;5113515;28;20449;-92
2022/05/25 00:33:42;;;;;;;3.73;2.23;;;11.30;99.90;;;;;;5113548;28;21012;-92
2022/05/25 00:36:09;;;;;;;2.23;2.00;;;11.30;99.90;;;;;;5113909;28;20454;-92
2022/05/25 00:38:36;;;;;;;10.33;2.10;;;11.30;99.90;;;;;;5113721;28;20526;-93
2022/05/25 00:41:03;;;;;;;3.77;2.47;;;11.30;99.90;;;;;;5117392;28;20460;-92
2022/05/25 00:43:29;;;;;;;3.00;2.27;;;11.20;99.90;;;;;;5117530;28;20737;-93
2022/05/25 00:46:02;;;;;;;2.90;2.07;;;11.10;99.90;;;;;;5117697;28;20458;-92
2022/05/25 00:48:34;;;;;;;2.50;2.10;;;11.10;99.90;;;;;;5117449;28;20478;-93
2022/05/25 00:51:13;;;;;;;2.80;2.60;;;11.00;99.90;;;;;;5117006;28;20502;-92
2022/05/25 00:53:41;;;;;;;12.97;2.50;;;10.90;99.90;;;;;;5117376;28;20457;-92
2022/05/25 00:56:10;;;;;;;2.30;1.90;;;10.70;99.90;;;;;;5117611;28;20449;-92
2022/05/25 00:58:39;;;;;;;4.63;2.50;;;10.70;99.90;;;;;;5117493;28;20484;-92
2022/05/25 01:01:07;;;;;;;2.53;2.33;;;10.70;99.90;;;;;;5117084;28;20523;-92
2022/05/25 01:03:33;;;;;;;4.70;2.13;;;10.70;99.90;;;;;;5116862;28;20502;-92
2022/05/25 01:06:06;;;;;;;1.90;1.80;;;10.70;99.90;;;;;;5117075;28;20864;-91
2022/05/25 01:08:41;;;;;;;3.97;2.10;;;10.70;99.90;;;;;;5117256;28;20490;-92
2022/05/25 01:11:25;;;;;;;2.83;2.30;;;10.70;99.90;;;;;;5116784;28;20432;-92
2022/05/25 01:14:03;;;;;;;2.43;2.17;;;10.70;99.90;;;;;;5116381;28;20453;-92
2022/05/25 01:16:38;;;;;;;2.53;2.20;;;10.70;99.90;;;;;;5116657;28;20809;-93
2022/05/25 01:19:13;;;;;;;3.30;2.17;;;10.70;99.90;;;;;;5116846;27;20854;-92
2022/05/25 01:21:49;;;;;;;5.30;2.57;;;10.60;99.90;;;;;;5117929;28;20518;-92
2022/05/25 01:24:26;;;;;;;7.37;2.53;;;10.60;99.90;;;;;;5119308;28;20673;-92
2022/05/25 01:27:17;;;;;;;2.60;2.40;;;10.50;99.90;;;;;;5125007;28;20429;-94
2022/05/25 01:30:20;;;;;;;4.63;2.00;;;10.50;99.90;;;;;;5125709;28;20515;-92
2022/05/25 01:33:13;;;;;;;2.63;2.13;;;10.50;99.90;;;;;;5116836;28;20965;-91
2022/05/25 01:35:50;;;;;;;2.40;2.20;;;10.40;99.90;;;;;;5116490;28;20445;-92
2022/05/25 01:38:24;;;;;;;3.67;2.17;;;10.40;99.90;;;;;;5116055;28;20540;-92
2022/05/25 01:40:59;;;;;;;6.13;2.00;;;10.40;99.90;;;;;;5116764;28;20445;-92
2022/05/25 01:43:30;;;;;;;7.13;2.27;;;10.30;99.90;;;;;;5115852;28;20503;-92
2022/05/25 01:46:04;;;;;;;8.33;2.40;;;10.30;99.90;;;;;;5116725;28;20522;-91
2022/05/25 01:48:35;;;;;;;3.70;2.20;;;10.20;99.90;;;;;;5116251;28;20479;-91
2022/05/25 01:51:07;;;;;;;4.23;2.33;;;10.20;99.90;;;;;;5115890;28;20910;-92
2022/05/25 01:53:38;;;;;;;3.07;2.40;;;10.20;99.90;;;;;;5116410;28;20450;-92
2022/05/25 01:56:09;;;;;;;7.37;3.87;;;10.10;99.90;;;;;;5116030;28;20438;-92
2022/05/25 01:58:38;;;;;;;2.63;2.30;;;10.00;99.90;;;;;;5116100;28;20474;-92
2022/05/25 02:01:09;;;;;;;3.03;2.73;;;9.90;99.90;;;;;;5116521;28;20498;-92
2022/05/25 02:06:59;;;;;;;3.00;2.80;;;9.80;99.90;;;;;;5116070;28;20477;-92
2022/05/25 02:48:50;;;;;;;5.93;2.50;;;9.80;99.90;;;;;;5286823;22;20474;-91
2022/05/25 02:51:17;;;;;;;7.83;2.40;;;9.80;99.90;;;;;;5098990;28;20420;-94
2022/05/25 02:53:44;;;;;;;3.43;2.00;;;9.80;99.90;;;;;;5098701;28;20435;-93
2022/05/25 02:56:11;;;;;;;2.20;2.10;;;9.80;99.90;;;;;;5098789;28;20439;-94
2022/05/25 02:58:37;;;;;;;2.40;2.30;;;9.70;99.90;;;;;;5098607;28;20482;-93
2022/05/25 03:23:42;;;;;;;3.83;2.30;;;9.30;99.90;;;;;;5151162;27;20538;-92
2022/05/25 03:26:09;;;;;;;2.73;2.53;;;9.20;99.90;;;;;;5151356;27;21002;-92
2022/05/25 03:28:36;;;;;;;2.90;2.20;;;9.30;99.90;;;;;;5151070;27;20866;-91
2022/05/25 03:31:03;;;;;;;3.97;2.10;;;9.30;99.90;;;;;;5151219;27;20432;-91
2022/05/25 03:33:30;;;;;;;4.27;2.50;;;9.30;99.90;;;;;;5150834;27;20471;-92
2022/05/25 03:36:06;;;;;;;2.23;2.03;;;9.30;99.90;;;;;;5151457;27;20476;-92
2022/05/25 03:38:33;;;;;;;3.80;2.30;;;9.30;99.90;;;;;;5151100;27;20499;-91
2022/05/25 03:41:02;;;;;;;3.50;2.37;;;9.30;99.90;;;;;;5150943;27;20448;-91
2022/05/25 03:43:31;;;;;;;4.50;2.90;;;9.20;99.90;;;;;;5150957;27;20500;-91
2022/05/25 03:45:58;;;;;;;6.70;2.40;;;9.20;99.90;;;;;;5151171;27;20479;-92
2022/05/25 03:48:25;;;;;;;9.90;2.30;;;9.20;99.90;;;;;;5150848;27;20498;-91
2022/05/25 03:50:52;;;;;;;8.10;2.57;;;9.20;99.90;;;;;;5150054;27;20861;-92
2022/05/25 03:53:18;;;;;;;4.50;2.50;;;9.20;99.90;;;;;;5150311;27;20482;-92
2022/05/25 03:55:45;;;;;;;2.70;2.50;;;9.20;99.90;;;;;;5150863;27;20455;-91
2022/05/25 03:58:15;;;;;;;5.73;2.70;;;9.20;99.90;;;;;;5150847;27;20997;-92
2022/05/25 04:00:42;;;;;;;4.30;2.60;;;9.20;99.90;;;;;;5150861;27;20591;-91
2022/05/25 04:03:12;;;;;;;2.80;2.60;;;9.20;99.90;;;;;;5150648;27;20448;-91
2022/05/25 04:05:38;;;;;;;9.47;3.17;;;9.20;99.90;;;;;;5150466;27;20468;-92
2022/05/25 04:08:05;;;;;;;4.47;2.70;;;9.20;99.90;;;;;;5150462;27;20433;-92
2022/05/25 04:10:32;;;;;;;3.57;2.90;;;9.20;99.90;;;;;;5150510;27;21060;-91
2022/05/25 04:12:59;;;;;;;6.03;2.63;;;9.20;99.90;;;;;;5150542;27;20525;-92
2022/05/25 04:15:29;;;;;;;3.80;2.80;;;9.20;99.90;;;;;;5150446;27;20588;-91
2022/05/25 04:17:56;;;;;;;8.90;2.90;;;9.30;99.90;;;;;;5150276;27;20451;-91
2022/05/25 04:20:25;;;;;;;4.53;2.87;;;9.30;99.90;;;;;;5150163;27;20476;-93
2022/05/25 04:22:52;;;;;;;5.27;2.77;;;9.30;99.90;;;;;;5146486;27;20520;-92
2022/05/25 04:25:21;;;;;;;8.13;2.70;;;9.40;99.90;;;;;;5136490;27;20460;-91
2022/05/25 04:27:49;;;;;;;5.23;2.80;;;9.40;99.90;;;;;;5136571;27;20436;-92
2022/05/25 04:30:18;;;;;;;3.47;3.17;;;9.50;99.90;;;;;;5136434;27;20525;-92
2022/05/25 04:32:47;;;;;;;5.70;2.90;;;9.40;99.90;;;;;;5137153;27;20571;-92
2022/05/25 04:35:15;;;;;;;7.33;3.20;;;9.40;99.90;;;;;;5136293;27;20437;-92
2022/05/25 04:37:53;;;;;;;4.83;3.07;;;9.50;99.90;;;;;;5136263;27;20505;-92
2022/05/25 04:40:26;;;;;;;7.63;3.20;;;9.50;99.90;;;;;;5136164;27;20529;-91
2022/05/25 04:42:54;;;;;;;5.47;3.40;;;9.50;99.90;;;;;;5136033;27;20520;-92
2022/05/25 04:45:21;;;;;;;4.53;3.73;;;9.60;99.90;;;;;;5136251;27;20463;-93
2022/05/25 04:47:49;;;;;;;5.30;3.40;;;9.70;99.90;;;;;;5135960;27;20449;-91
2022/05/25 04:50:18;;;;;;;4.07;3.03;;;9.80;99.90;;;;;;5135910;27;20534;-91
2022/05/25 04:52:45;;;;;;;3.83;3.07;;;9.80;99.90;;;;;;5135743;27;20473;-92
2022/05/25 04:57:19;;;;;;;9.43;3.90;;;9.90;99.90;;;;;;5135593;27;20457;-92
2022/05/25 04:57:58;;;;;;;3.97;3.43;;;9.90;99.90;;;;;;5135837;27;20451;-92
2022/05/25 05:00:25;;;;;;;3.50;3.20;;;10.00;99.90;;;;;;5135765;27;20469;-92
2022/05/25 05:02:53;;;;;;;4.13;2.93;;;10.00;99.90;;;;;;5135747;27;20445;-92
2022/05/25 05:05:21;;;;;;;4.07;2.80;;;10.10;99.90;;;;;;5135491;27;20457;-92
2022/05/25 05:07:48;;;;;;;3.53;3.27;;;10.20;99.90;;;;;;5135704;27;20452;-91
2022/05/25 05:10:15;;;;;;;5.30;3.40;;;10.30;99.90;;;;;;5135763;27;20468;-91
2022/05/25 05:12:42;;;;;;;3.23;2.93;;;10.40;99.90;;;;;;5135139;27;20488;-91
2022/05/25 05:15:10;;;;;;;3.33;3.03;;;10.50;99.90;;;;;;5135057;27;20855;-92
2022/05/25 05:17:37;;;;;;;6.10;2.90;;;10.60;99.90;;;;;;5135056;27;20506;-91
2022/05/25 05:20:06;;;;;;;3.63;3.33;;;10.70;99.90;;;;;;5134917;27;20506;-92
2022/05/25 05:22:34;;;;;;;5.60;3.10;;;10.90;99.90;;;;;;5135120;27;20456;-91
2022/05/25 05:25:00;;;;;;;3.63;3.33;;;11.00;99.90;;;;;;5135089;27;20459;-91
2022/05/25 05:27:27;;;;;;;3.70;2.80;;;11.10;99.90;;;;;;5134864;27;20456;-92
2022/05/25 05:29:55;;;;;;;12.73;3.50;;;11.30;99.90;;;;;;5134590;27;20462;-91
2022/05/25 05:32:21;;;;;;;7.37;3.00;;;11.30;99.90;;;;;;5135048;27;20600;-92
2022/05/25 05:34:48;;;;;;;3.43;3.10;;;11.50;99.90;;;;;;5133629;27;20429;-92
2022/05/25 05:37:20;;;;;;;3.37;3.07;;;11.70;99.90;;;;;;5134727;27;20448;-92
2022/05/25 05:39:57;;;;;;;3.13;2.83;;;11.90;99.90;;;;;;5134909;27;20469;-91
2022/05/25 05:42:26;;;;;;;3.60;3.03;;;12.10;99.90;;;;;;5134719;27;20432;-92
2022/05/25 05:44:55;;;;;;;51.27;22.57;;;12.20;99.90;;;;;;5134560;27;20823;-91
2022/05/25 05:47:25;;;;;;;8.00;4.83;;;12.30;99.90;;;;;;5134518;27;20453;-94
2022/05/25 05:49:52;;;;;;;3.27;2.97;;;12.40;99.90;;;;;;5134517;27;20445;-91
2022/05/25 05:52:20;;;;;;;8.30;3.23;;;12.60;99.90;;;;;;5134520;27;20480;-91
2022/05/25 05:54:47;;;;;;;6.57;2.70;;;12.60;99.90;;;;;;5134309;27;20449;-92
2022/05/25 05:57:14;;;;;;;5.20;2.80;;;12.80;99.90;;;;;;5134755;27;20457;-91
2022/05/25 05:59:41;;;;;;;2.97;2.70;;;12.90;99.90;;;;;;5135252;27;20974;-92
2022/05/25 06:02:08;;;;;;;3.37;3.07;;;13.00;99.90;;;;;;5135019;27;20452;-91
2022/05/25 06:04:35;;;;;;;6.47;3.33;;;13.10;99.90;;;;;;5134651;27;20453;-91
2022/05/25 06:07:03;;;;;;;3.60;3.30;;;13.10;99.90;;;;;;5134524;27;20440;-92
2022/05/25 06:09:31;;;;;;;3.20;2.90;;;13.10;99.90;;;;;;5134243;27;20460;-92
2022/05/25 06:11:58;;;;;;;13.20;3.20;;;13.20;99.90;;;;;;5134312;27;20452;-92
2022/05/25 06:14:25;;;;;;;5.83;3.77;;;13.40;99.90;;;;;;5134265;27;20425;-92
2022/05/25 06:19:37;;;;;;;5.00;2.87;;;13.70;99.90;;;;;;5134210;27;20491;-91
2022/05/25 06:22:07;;;;;;;3.03;2.73;;;13.80;99.90;;;;;;5133922;27;20456;-91
2022/05/25 06:24:38;;;;;;;4.13;3.23;;;13.90;99.90;;;;;;5134247;27;20502;-90
2022/05/25 06:27:08;;;;;;;4.80;2.97;;;14.00;99.90;;;;;;5134104;27;20449;-91
2022/05/25 06:29:35;;;;;;;7.53;2.80;;;14.20;99.90;;;;;;5134038;27;20469;-91
2022/05/25 06:32:02;;;;;;;6.80;3.20;;;14.30;99.90;;;;;;5133864;27;20927;-91
2022/05/25 06:34:28;;;;;;;2.73;2.50;;;14.60;99.90;;;;;;5133791;27;20452;-90
2022/05/25 06:36:55;;;;;;;5.27;2.87;;;14.90;99.90;;;;;;5133562;27;20441;-92
2022/05/25 06:39:22;;;;;;;8.63;3.00;;;15.20;99.90;;;;;;5134081;27;20476;-91
2022/05/25 06:41:50;;;;;;;6.30;2.80;;;15.40;99.90;;;;;;5133568;27;20430;-91
2022/05/25 06:44:17;;;;;;;5.07;3.37;;;15.60;99.90;;;;;;5133476;27;20404;-91
2022/05/25 06:46:44;;;;;;;6.63;3.10;;;15.80;99.90;;;;;;5133415;27;20441;-91
2022/05/25 06:49:11;;;;;;;3.53;2.60;;;15.90;99.90;;;;;;5133720;27;20461;-91
2022/05/25 06:51:38;;;;;;;5.57;2.80;;;15.90;99.90;;;;;;5133775;27;20449;-90
2022/05/25 06:54:05;;;;;;;2.70;2.53;;;16.10;99.90;;;;;;5133137;27;20985;-91
2022/05/25 06:56:32;;;;;;;2.70;2.50;;;16.10;99.90;;;;;;5133622;27;20439;-91
2022/05/25 06:59:00;;;;;;;4.47;2.73;;;16.20;99.90;;;;;;5133619;27;20447;-91
2022/05/25 07:01:28;;;;;;;8.07;2.30;;;16.30;99.90;;;;;;5133423;27;20441;-90
2022/05/25 07:03:55;;;;;;;11.33;2.80;;;;;;;;;;5133294;27;20456;-90
2022/05/25 07:06:25;;;;;;;4.60;2.40;;;16.60;99.90;;;;;;5133588;27;20454;-91
2022/05/25 07:08:52;;;;;;;3.93;2.27;;;16.90;99.90;;;;;;5133618;27;20428;-90
2022/05/25 07:11:20;;;;;;;2.47;2.27;;;16.90;99.90;;;;;;5133602;27;20456;-90
2022/05/25 07:13:47;;;;;;;6.40;2.40;;;17.20;99.90;;;;;;5133365;27;20506;-90
2022/05/25 07:16:17;;;;;;;3.57;2.30;;;17.30;99.90;;;;;;5133183;27;20431;-90
2022/05/25 07:18:45;;;;;;;5.07;2.70;;;17.50;99.90;;;;;;5113445;27;20708;-90
2022/05/25 07:21:16;;;;;;;3.73;2.60;;;17.60;99.90;;;;;;5113080;27;20424;-92
2022/05/25 07:23:45;;;;;;;4.17;2.40;;;17.70;99.90;;;;;;5113184;27;20490;-91
2022/05/25 07:26:12;;;;;;;6.97;2.50;;;17.70;99.90;;;;;;5113183;27;20455;-91
2022/05/25 07:28:40;;;;;;;5.43;3.43;;;17.90;99.90;;;;;;5112785;27;20531;-91
2022/05/25 07:31:09;;;;;;;6.37;2.40;;;18.00;99.90;;;;;;5113176;27;20424;-90
2022/05/25 07:33:40;;;;;;;5.40;2.33;;;18.30;99.90;;;;;;5112707;27;20477;-91
2022/05/25 07:36:10;;;;;;;3.03;2.33;;;18.30;99.90;;;;;;5113039;28;20422;-91
2022/05/25 07:38:39;;;;;;;3.63;2.37;;;18.60;99.90;;;;;;5112840;27;20505;-90
2022/05/25 07:41:05;;;;;;;6.53;3.10;;;18.70;99.90;;;;;;5112625;27;20462;-90
2022/05/25 07:43:35;;;;;;;3.70;2.80;;;18.50;99.90;;;;;;5112732;28;20472;-91
2022/05/25 07:46:01;;;;;;;4.40;2.90;;;18.50;99.90;;;;;;5112829;27;20424;-91
2022/05/25 07:48:28;;;;;;;5.63;2.50;;;18.50;99.90;;;;;;5112715;27;20477;-90
2022/05/25 07:50:57;;;;;;;2.80;2.60;;;18.40;99.90;;;;;;5112453;27;20979;-90
2022/05/25 07:56:08;;;;;;;3.97;2.27;;;18.20;99.90;;;;;;5112755;28;20435;-90
2022/05/25 07:58:35;;;;;;;8.23;3.20;;;18.00;99.90;;;;;;5113910;27;20535;-91
2022/05/25 08:01:10;;;;;;;10.10;2.53;;;18.10;99.90;;;;;;5116393;28;20433;-90
2022/05/25 08:06:23;;;;;;;3.50;2.37;;;18.60;99.90;;;;;;5116173;28;20409;-91
2022/05/25 08:08:51;;;;;;;4.77;2.00;;;18.50;99.90;;;;;;5116375;27;20471;-91
2022/05/25 08:11:20;;;;;;;5.93;1.80;;;18.00;99.90;;;;;;5116491;28;20449;-91
2022/05/25 08:13:51;;;;;;;4.60;1.60;;;17.70;99.90;;;;;;5116075;28;20642;-90
2022/05/25 08:16:18;;;;;;;3.40;1.90;;;17.50;99.90;;;;;;5116098;27;20481;-90
2022/05/25 08:18:44;;;;;;;2.93;2.10;;;17.50;99.90;;;;;;5116029;28;20458;-90
2022/05/25 08:21:12;;;;;;;2.43;2.00;;;17.50;99.90;;;;;;5116233;28;20468;-90
2022/05/25 08:23:40;;;;;;;3.67;1.77;;;17.40;99.90;;;;;;5115996;28;20445;-91
2022/05/25 08:26:07;;;;;;;5.13;2.20;;;;;;;;;;5116064;28;20453;-91
2022/05/25 08:28:34;;;;;;;2.53;1.87;;;18.30;99.90;;;;;;5115872;28;20482;-90
2022/05/25 08:31:01;;;;;;;5.50;1.60;;;18.90;99.90;;;;;;5116395;28;20511;-91
2022/05/25 08:33:28;;;;;;;2.17;1.80;;;;;;;;;;5116453;28;20484;-90
2022/05/25 08:35:55;;;;;;;3.73;1.60;;;18.40;99.90;;;;;;5116425;28;20470;-91
2022/05/25 08:38:23;;;;;;;1.60;1.50;;;18.30;99.90;;;;;;5115942;27;20437;-91
2022/05/25 08:40:53;;;;;;;2.03;1.80;;;18.20;99.90;;;;;;5116386;28;20828;-91
2022/05/25 08:43:25;;;;;;;3.60;1.87;;;18.20;99.90;;;;;;5116699;27;20812;-90
2022/05/25 08:45:58;;;;;;;1.80;1.70;;;18.50;99.90;;;;;;5116216;28;20503;-91
2022/05/25 08:48:27;;;;;;;3.40;1.90;;;19.00;99.90;;;;;;5116157;28;20480;-90
2022/05/25 08:50:58;;;;;;;3.07;1.80;;;18.90;99.90;;;;;;5116210;28;20450;-90
2022/05/25 08:53:25;;;;;;;1.60;1.50;;;18.70;99.90;;;;;;5116423;28;20478;-90
2022/05/25 08:56:00;;;;;;;3.73;1.50;;;18.90;99.90;;;;;;5116401;28;20947;-90
2022/05/25 08:58:36;;;;;;;3.10;1.60;;;19.20;99.90;;;;;;5116416;28;20497;-90
2022/05/25 09:01:06;;;;;;;3.00;1.53;;;19.20;99.90;;;;;;5115832;27;20954;-91
2022/05/25 09:03:40;;;;;;;3.03;1.83;;;19.50;99.90;;;;;;5115308;28;20458;-90
2022/05/25 09:06:13;;;;;;;2.57;1.40;;;19.40;99.90;;;;;;5115509;28;20886;-92
2022/05/25 09:08:47;;;;;;;2.03;1.23;;;19.10;99.90;;;;;;5115184;28;20454;-91
2022/05/25 09:11:19;;;;;;;1.93;1.40;;;19.10;99.90;;;;;;5115544;28;20824;-91
2022/05/25 09:13:53;;;;;;;3.63;1.73;;;19.50;99.90;;;;;;5115322;28;20505;-90
2022/05/25 09:16:23;;;;;;;2.50;1.30;;;19.70;99.90;;;;;;5117060;27;20450;-91
2022/05/25 09:19:01;;;;;;;1.60;1.20;;;19.80;99.90;;;;;;5136137;27;20471;-91
2022/05/25 09:21:33;;;;;;;6.50;1.17;;;19.80;99.90;;;;;;5136062;27;20455;-91
2022/05/25 09:24:04;;;;;;;1.63;1.43;;;19.80;99.90;;;;;;5136027;27;20483;-91
2022/05/25 09:26:32;;;;;;;2.80;1.30;;;19.50;99.90;;;;;;5135453;27;20523;-91
2022/05/25 09:29:03;;;;;;;2.33;1.10;;;19.20;99.90;;;;;;5135575;27;20480;-90
2022/05/25 09:31:35;;;;;;;2.90;1.10;;;19.40;99.90;;;;;;5135481;27;20502;-90
2022/05/25 09:34:08;;;;;;;1.30;1.13;;;20.00;99.90;;;;;;5135422;27;20479;-91
2022/05/25 09:36:39;;;;;;;2.23;1.40;;;20.30;99.90;;;;;;5136679;27;20480;-90
2022/05/25 09:39:15;;;;;;;3.13;1.20;;;20.30;99.90;;;;;;5135577;27;20485;-90
2022/05/25 09:41:45;;;;;;;1.93;1.03;;;20.20;99.90;;;;;;5135361;27;20440;-90
2022/05/25 09:44:19;;;;;;;3.53;1.10;;;20.60;99.90;;;;;;5134924;27;20460;-90
2022/05/25 09:46:51;;;;;;;2.80;1.30;;;21.10;99.90;;;;;;5135500;27;20437;-90
2022/05/25 09:49:35;;;;;;;2.90;1.50;;;20.40;99.90;;;;;;5134824;27;20480;-90
2022/05/25 09:52:05;;;;;;;1.30;1.20;;;20.60;99.90;;;;;;5135153;27;20459;-91
2022/05/25 09:54:35;;;;;;;1.83;1.20;;;20.90;99.90;;;;;;5134518;27;20480;-91
2022/05/25 09:57:08;;;;;;;1.63;1.20;;;21.00;99.90;;;;;;5134896;27;20448;-90
2022/05/25 09:59:40;;;;;;;3.43;1.40;;;21.40;99.90;;;;;;5135321;27;20469;-90
2022/05/25 10:02:25;;;;;;;2.90;1.20;;;20.90;99.90;;;;;;5135110;27;20425;-91
2022/05/25 10:04:54;;;;;;;3.00;1.33;;;21.20;99.90;;;;;;5134667;27;20433;-90
2022/05/25 10:07:30;;;;;;;1.40;1.20;;;21.40;99.90;;;;;;5134824;27;20463;-91
2022/05/25 10:10:01;;;;;;;1.73;1.27;;;21.40;99.90;;;;;;5134623;27;20883;-90
2022/05/25 10:12:33;;;;;;;3.37;1.53;;;21.60;99.90;;;;;;5134935;27;20920;-90
2022/05/25 10:15:03;;;;;;;1.80;1.10;;;21.50;99.90;;;;;;5134519;27;20854;-90
2022/05/25 10:17:33;;;;;;;4.13;1.20;;;21.30;99.90;;;;;;5135166;27;20980;-90
2022/05/25 10:19:59;;;;;;;1.60;1.07;;;21.60;99.90;;;;;;5134550;27;20473;-90
2022/05/25 10:22:35;;;;;;;1.90;1.63;;;21.90;99.90;;;;;;5134020;27;20457;-90
2022/05/25 10:25:05;;;;;;;4.90;1.40;;;21.90;99.90;;;;;;5134591;27;20451;-91
2022/05/25 10:27:38;;;;;;;1.40;1.10;;;21.80;99.90;;;;;;5134832;27;20468;-91
2022/05/25 10:38:46;;;;;;;1.30;1.07;;;21.80;99.90;;;;;;5134307;27;20482;-92
2022/05/25 10:44:06;;;;;;;3.80;1.20;;;22.10;99.90;;;;;;5129218;27;20436;-90
2022/05/25 10:46:33;;;;;;;1.57;1.17;;;22.50;99.90;;;;;;5134392;27;20463;-90
2022/05/25 10:49:09;;;;;;;3.20;1.20;;;22.50;99.90;;;;;;5133966;27;20496;-91
2022/05/25 10:51:42;;;;;;;5.53;1.20;;;21.90;99.90;;;;;;5134273;27;20441;-90
2022/05/25 10:57:08;;;;;;;1.40;1.10;;;20.60;99.90;;;;;;5134113;27;20408;-91
2022/05/25 10:59:45;;;;;;;1.73;1.00;;;20.60;99.90;;;;;;5134134;27;20476;-91
2022/05/25 11:02:26;;;;;;;1.20;1.10;;;20.90;99.90;;;;;;5134357;27;20453;-92
2022/05/25 11:05:18;;;;;;;7.77;1.00;;;21.10;99.90;;;;;;5134271;27;20449;-91
2022/05/25 11:07:44;;;;;;;1.50;1.00;;;20.60;99.90;;;;;;5133865;27;20453;-91
2022/05/25 11:10:25;;;;;;;1.77;0.90;;;21.00;99.90;;;;;;5133903;27;20484;-91
2022/05/25 11:13:09;;;;;;;3.20;1.20;;;21.70;99.90;;;;;;5134220;27;20453;-90
2022/05/25 11:15:48;;;;;;;4.50;1.10;;;22.10;99.90;;;;;;5134456;27;20433;-91
2022/05/25 11:18:27;;;;;;;1.87;1.00;;;22.10;99.90;;;;;;5137886;27;20456;-96
2022/05/25 11:21:09;;;;;;;1.60;1.07;;;22.30;99.90;;;;;;5159406;27;20436;-96
2022/05/25 11:23:51;;;;;;;3.57;1.17;;;22.70;99.90;;;;;;5159528;27;20435;-96
2022/05/25 11:26:42;;;;;;;6.23;1.00;;;23.10;99.90;;;;;;5159580;27;20449;-96
2022/05/25 11:29:18;;;;;;;3.03;1.00;;;22.80;99.90;;;;;;5157145;27;20471;-96
2022/05/25 11:32:00;;;;;;;3.07;1.00;;;23.00;99.90;;;;;;5159354;27;20440;-94
2022/05/25 11:34:45;;;;;;;2.03;1.00;;;22.60;99.90;;;;;;5159248;27;20529;-92
2022/05/25 11:37:21;;;;;;;2.53;1.10;;;22.70;99.90;;;;;;5139002;27;20468;-90
2022/05/25 11:39:59;;;;;;;2.03;0.80;;;22.50;99.90;;;;;;5138575;27;20472;-91
2022/05/25 11:42:45;;;;;;;1.00;0.70;;;22.90;99.90;;;;;;5138783;27;20448;-91
2022/05/25 11:45:27;;;;;;;1.27;0.90;;;23.40;99.90;;;;;;5138991;27;20425;-91
2022/05/25 11:48:13;;;;;;;1.20;0.80;;;23.30;99.50;;;;;;5138384;27;20502;-91
2022/05/25 11:50:45;;;;;;;2.87;0.87;;;23.00;98.90;;;;;;5138587;27;20536;-90
2022/05/25 11:53:32;;;;;;;1.83;0.80;;;22.70;98.50;;;;;;5138284;27;20981;-89
2022/05/25 11:56:12;;;;;;;1.83;0.90;;;22.90;97.20;;;;;;5138564;27;20444;-91
2022/05/25 11:58:52;;;;;;;1.47;0.83;;;23.30;98.80;;;;;;5138375;27;20472;-90
2022/05/25 12:01:28;;;;;;;1.13;0.80;;;23.70;99.40;;;;;;5138389;27;20445;-92
2022/05/25 12:04:26;;;;;;;2.40;0.73;;;23.80;97.60;;;;;;5138144;27;20444;-90
2022/05/25 12:07:28;;;;;;;1.83;0.80;;;23.60;96.40;;;;;;5138452;27;20452;-91
2022/05/25 12:10:29;;;;;;;2.60;1.07;;;23.50;99.40;;;;;;5136034;27;20475;-90
2022/05/25 12:13:03;;;;;;;1.40;0.87;;;23.60;96.20;;;;;;5122795;27;20440;-91
2022/05/25 12:15:36;;;;;;;1.30;0.80;;;23.80;97.40;;;;;;5138072;27;20484;-91
2022/05/25 12:18:15;;;;;;;1.10;0.90;;;23.20;95.40;;;;;;5145548;27;20421;-91
2022/05/25 12:20:49;;;;;;;3.77;0.90;;;22.80;95.30;;;;;;5137301;27;20441;-91
2022/05/25 12:23:21;;;;;;;3.67;0.90;;;23.10;96.50;;;;;;5137184;27;20466;-90
2022/05/25 12:25:53;;;;;;;1.30;0.87;;;23.30;95.50;;;;;;5137571;27;20451;-90
2022/05/25 12:28:23;;;;;;;2.60;1.00;;;23.40;94.60;;;;;;5137429;27;20926;-90
2022/05/25 12:30:50;;;;;;;1.20;1.00;;;23.20;95.40;;;;;;5137549;27;20453;-91
2022/05/25 12:33:22;;;;;;;1.40;1.13;;;22.40;95.80;;;;;;5137430;27;20980;-91
2022/05/25 12:35:51;;;;;;;2.13;1.00;;;22.40;96.00;;;;;;5137594;27;20522;-90
2022/05/25 12:38:20;;;;;;;2.40;1.10;;;22.20;95.40;;;;;;5137392;27;20460;-90
2022/05/25 12:40:48;;;;;;;1.50;1.00;;;22.50;94.60;;;;;;5137363;27;20799;-91
2022/05/25 12:43:49;;;;;;;1.27;1.00;;;22.70;94.40;;;;;;5137262;27;20457;-91
2022/05/25 12:49:08;;;;;;;4.93;1.10;;;23.00;94.60;;;;;;5136976;27;20444;-91
2022/05/25 12:51:39;;;;;;;1.73;0.80;;;23.10;94.40;;;;;;5137476;27;20449;-89
2022/05/25 12:54:20;;;;;;;1.63;1.10;;;22.90;93.60;;;;;;5137356;27;20952;-90
2022/05/25 12:56:47;;;;;;;2.03;0.80;;;22.70;93.50;;;;;;5137781;27;20441;-89
2022/05/25 12:59:27;;;;;;;1.60;1.00;;;22.60;93.80;;;;;;5136700;27;20473;-91
2022/05/25 13:02:13;;;;;;;2.87;1.00;;;22.50;95.20;;;;;;5137503;27;20448;-90
2022/05/25 13:04:47;;;;;;;1.40;0.90;;;22.30;94.70;;;;;;5137474;27;20452;-91
2022/05/25 13:07:41;;;;;;;2.53;1.00;;;21.90;95.80;;;;;;5136649;27;20862;-91
2022/05/25 13:10:44;;;;;;;1.77;0.90;;;22.40;96.00;;;;;;5137128;27;20480;-90
2022/05/25 13:13:38;;;;;;;1.10;0.90;;;23.20;94.90;;;;;;5112784;27;20468;-88
2022/05/25 13:16:05;;;;;;;1.70;1.00;;;23.10;93.80;;;;;;5136796;27;20488;-91
2022/05/25 13:18:53;;;;;;;2.63;0.90;;;22.40;93.70;;;;;;5136961;27;20492;-90
2022/05/25 13:21:43;;;;;;;6.30;1.00;;;22.10;94.70;;;;;;5136275;27;20866;-90
2022/05/25 13:24:27;;;;;;;1.30;0.80;;;23.20;96.90;;;;;;5137306;27;20532;-91
2022/05/25 13:27:32;;;;;;;1.03;0.73;;;23.50;94.60;;;;;;5137033;27;20459;-91
2022/05/25 13:30:06;;;;;;;3.20;0.93;;;23.70;94.90;;;;;;5136639;27;20492;-91
2022/05/25 13:32:37;;;;;;;2.90;0.90;;;24.00;93.90;;;;;;5136765;27;20452;-91
2022/05/25 13:35:30;;;;;;;2.00;0.90;;;23.80;93.20;;;;;;5136468;27;20485;-91
2022/05/25 13:38:00;;;;;;;1.57;0.93;;;23.50;93.80;;;;;;5136640;27;20990;-90
2022/05/25 13:40:32;;;;;;;1.20;0.80;;;22.70;94.70;;;;;;5136383;27;20469;-90
2022/05/25 13:43:00;;;;;;;1.53;1.30;;;;;;;;;;5136421;27;20422;-90
2022/05/25 13:45:29;;;;;;;2.37;1.23;;;22.50;94.50;;;;;;5136599;27;20874;-90
2022/05/25 13:47:58;;;;;;;2.50;1.07;;;22.60;94.50;;;;;;5136600;27;20459;-91
2022/05/25 13:50:33;;;;;;;1.83;1.00;;;22.40;94.40;;;;;;5135931;27;20469;-91
2022/05/25 13:53:01;;;;;;;1.70;1.47;;;22.80;93.80;;;;;;5139107;27;20463;-90
2022/05/25 13:55:32;;;;;;;6.07;0.73;;;23.30;92.60;;;;;;5138237;27;21027;-92
2022/05/25 13:58:01;;;;;;;3.53;0.70;;;23.20;90.90;;;;;;5135738;27;20445;-91
2022/05/25 14:00:41;;;;;;;4.73;0.70;;;22.80;91.20;;;;;;5135711;27;20679;-90
2022/05/25 14:03:27;;;;;;;1.20;0.80;;;22.90;91.80;;;;;;5135748;27;20460;-89
2022/05/25 14:05:56;;;;;;;1.77;0.83;;;22.80;91.40;;;;;;5135623;27;20456;-90
2022/05/25 14:10:54;;;;;;;1.20;0.90;;;23.10;92.50;;;;;;5136091;27;20453;-90
2022/05/25 14:11:19;;;;;;;2.07;0.80;;;23.10;91.60;;;;;;5135328;27;20529;-91
2022/05/25 14:13:47;;;;;;;1.30;0.70;;;22.50;92.20;;;;;;5135996;27;20456;-89
2022/05/25 14:16:16;;;;;;;3.00;0.80;;;23.20;93.00;;;;;;5135776;27;20473;-91
2022/05/25 14:18:46;;;;;;;4.33;1.00;;;23.10;93.10;;;;;;5135332;27;20480;-91
2022/05/25 14:21:26;;;;;;;2.20;0.70;;;23.50;92.40;;;;;;5135696;27;20481;-90
2022/05/25 14:23:54;;;;;;;2.90;1.03;;;23.70;91.70;;;;;;5135663;27;20810;-90
2022/05/25 14:26:26;;;;;;;3.60;0.90;;;23.80;91.60;;;;;;5135689;27;20441;-91
2022/05/25 14:28:54;;;;;;;1.00;0.80;;;23.50;91.40;;;;;;5135056;27;20469;-91
2022/05/25 14:31:23;;;;;;;1.27;0.70;;;23.10;92.10;;;;;;5135249;27;20453;-91
2022/05/25 14:33:50;;;;;;;2.70;0.90;;;22.80;92.30;;;;;;5134810;27;20445;-91
2022/05/25 14:36:20;;;;;;;2.70;0.90;;;23.10;92.80;;;;;;5134815;27;20476;-91
2022/05/25 14:38:48;;;;;;;1.20;0.80;;;22.90;90.70;;;;;;5134832;27;20476;-90
2022/05/25 14:41:24;;;;;;;1.77;0.80;;;22.90;90.40;;;;;;5135089;27;20521;-92
2022/05/25 14:43:51;;;;;;;3.00;1.60;;;22.80;90.90;;;;;;5134755;27;20969;-90
2022/05/25 14:46:21;;;;;;;2.17;1.07;;;22.90;91.40;;;;;;5134717;27;20449;-91